Indianapolis, IN

9:47 PM EDT on July 18, 2019 (GMT -0400)
Indianapolis Terry

Weather History for KTYQ - May, 2019

Change the Weather History Date:

Tuesday, May 14, 2019

  Actual Average (KEYE) Record (KEYE)
Temperature  
Mean Temperature 51 °F -  
Max Temperature 66 °F 69 °F 89 °F (2018)
Min Temperature 36 °F 51 °F 41 °F (2016)
Degree Days  
Heating Degree Days 14    
Growing Degree Days 1 (Base 50)    
Moisture  
Dew Point 41 °F    
Average Humidity 72    
Maximum Humidity 100    
Minimum Humidity 40    
Precipitation  
Precipitation 0.00 in - - ()
Sea Level Pressure  
Sea Level Pressure 30.03 in    
Wind  
Wind Speed 1 mph ()    
Max Wind Speed 10 mph    
Max Gust Speed 16 mph    
Visibility 9.7 miles    
Events      
Averages and records for this station are not official NWS values.
T = Trace of Precipitation, MM = Missing Value Source: Averaged Metar Reports

Daily Weather History Graph

Daily Weather History Graph

Search for Another Location

Airport or City:

Astronomy

May. 14, 2019 Rise Set
Actual Time 6:30 AM EDT 8:52 PM EDT
Civil Twilight 6:00 AM EDT 9:23 PM EDT
Nautical Twilight 5:22 AM EDT 10:00 PM EDT
Astronomical Twilight 4:40 AM EDT 10:42 PM EDT
Moon 4:13 PM EDT (5/14) 4:23 AM EDT (5/14)
Length of Visible Light 15h 22m
Length of Day
14h 21m
Waxing Gibbous, 79% of the Moon is Illuminated
May 14
Waxing Gibbous
May 18
Full
May 26
Last Quarter
Jun 3
New
Jun 10
First Quarter

Hourly Weather History & Observations

Time (EDT) Temp. Dew Point Humidity Pressure Visibility Wind Dir Wind Speed Gust Speed Precip Events Conditions
12:15 AM 41.4 °F 41.4 °F 100% 30.01 in 10.0 mi Calm Calm - N/A   Clear
12:35 AM 41.4 °F 41.4 °F 100% 30.02 in 10.0 mi Calm Calm - N/A   Clear
12:55 AM 41.0 °F 41.0 °F 100% 30.02 in 7.0 mi Calm Calm - N/A   Clear
1:15 AM 40.1 °F 40.1 °F 100% 30.01 in 7.0 mi Calm Calm - N/A   Clear
1:35 AM 39.6 °F 39.6 °F 100% 30.01 in 7.0 mi Calm Calm - N/A   Clear
1:55 AM 39.2 °F 39.2 °F 100% 30.01 in 7.0 mi Calm Calm - N/A   Clear
2:15 AM 38.7 °F 38.7 °F 100% 30.01 in 10.0 mi Calm Calm - N/A   Clear
2:35 AM 38.5 °F 38.5 °F 100% 30.01 in 10.0 mi Calm Calm - N/A   Clear
2:55 AM 38.7 °F 38.7 °F 100% 30.00 in 7.0 mi Calm Calm - N/A   Clear
3:15 AM 38.5 °F 38.5 °F 100% 30.00 in 7.0 mi Calm Calm - N/A   Clear
3:35 AM 37.9 °F 37.9 °F 100% 30.00 in 10.0 mi Calm Calm - N/A   Clear
3:55 AM 37.6 °F 37.6 °F 100% 30.00 in 10.0 mi Calm Calm - N/A   Clear
4:15 AM 37.6 °F 37.6 °F 100% 30.00 in 10.0 mi Calm Calm - N/A   Clear
4:35 AM 37.8 °F 37.8 °F 100% 30.01 in 10.0 mi Calm Calm - N/A   Clear
4:55 AM 37.9 °F 37.9 °F 100% 30.01 in 10.0 mi Calm Calm - N/A   Clear
5:15 AM 37.0 °F 37.0 °F 100% 30.02 in 10.0 mi Calm Calm - N/A   Clear
5:35 AM 37.4 °F 37.4 °F 100% 30.02 in 10.0 mi Calm Calm - N/A   Clear
5:55 AM 36.7 °F 36.7 °F 100% 30.03 in 10.0 mi Calm Calm - N/A   Clear
6:15 AM 36.7 °F 36.7 °F 100% 30.03 in 10.0 mi Calm Calm - N/A   Clear
6:35 AM 37.2 °F 37.2 °F 100% 30.03 in 10.0 mi Calm Calm - N/A   Clear
6:55 AM 36.7 °F 36.7 °F 100% 30.04 in 7.0 mi Calm Calm - N/A   Clear
7:15 AM 37.4 °F 37.4 °F 100% 30.05 in 10.0 mi Calm Calm - N/A   Clear
7:35 AM 38.7 °F 38.7 °F 100% 30.06 in 7.0 mi Calm Calm - N/A   Clear
7:55 AM 40.8 °F 40.8 °F 100% 30.06 in 10.0 mi Calm Calm - N/A   Clear
8:15 AM 43.3 °F 43.3 °F 100% 30.06 in 10.0 mi Calm Calm - N/A   Clear
8:35 AM 46.0 °F 44.8 °F 95% 30.07 in 10.0 mi Calm Calm - N/A   Clear
8:55 AM 48.6 °F 44.1 °F 84% 30.07 in 10.0 mi Calm Calm - N/A   Clear
9:15 AM 50.7 °F 44.1 °F 78% 30.07 in 10.0 mi Calm Calm - N/A   Clear
9:35 AM 52.7 °F 44.6 °F 74% 30.08 in 10.0 mi Calm Calm - N/A   Clear
9:55 AM 54.1 °F 44.6 °F 70% 30.08 in 10.0 mi Calm Calm - N/A   Clear
10:15 AM 54.7 °F 44.2 °F 68% 30.08 in 10.0 mi Calm Calm - N/A   Clear
10:35 AM 56.1 °F 44.8 °F 66% 30.08 in 10.0 mi Calm Calm - N/A   Clear
10:55 AM 57.6 °F 44.8 °F 62% 30.08 in 10.0 mi Calm Calm - N/A   Clear
11:15 AM 57.9 °F 41.7 °F 55% 30.08 in 10.0 mi Calm Calm - N/A   Clear
11:35 AM 58.3 °F 41.0 °F 53% 30.07 in 10.0 mi Calm Calm - N/A   Clear
11:55 AM 59.4 °F 42.1 °F 53% 30.07 in 10.0 mi North 3.5 mph - N/A   Clear
12:15 PM 59.2 °F 41.0 °F 51% 30.07 in 10.0 mi Calm Calm - N/A   Clear
12:35 PM 59.4 °F 41.2 °F 51% 30.07 in 10.0 mi NW 3.5 mph - N/A   Clear
12:55 PM 60.8 °F 41.5 °F 49% 30.07 in 10.0 mi Calm Calm - N/A   Clear
1:15 PM 60.8 °F 41.4 °F 49% 30.07 in 10.0 mi NW 4.6 mph - N/A   Scattered Clouds
1:35 PM 63.1 °F 42.8 °F 47% 30.06 in 10.0 mi West 6.9 mph - N/A   Scattered Clouds
1:55 PM 62.8 °F 42.8 °F 48% 30.06 in 10.0 mi WNW 4.6 mph - N/A   Scattered Clouds
2:15 PM 62.8 °F 40.3 °F 44% 30.06 in 10.0 mi NW 4.6 mph - N/A   Clear
2:35 PM 63.0 °F 41.2 °F 45% 30.06 in 10.0 mi WSW 5.8 mph - N/A   Clear
2:55 PM 63.1 °F 41.2 °F 45% 30.04 in 10.0 mi NE 3.5 mph - N/A   Scattered Clouds
3:15 PM 64.4 °F 41.5 °F 43% 30.04 in 10.0 mi West 6.9 mph - N/A   Scattered Clouds
3:35 PM 63.5 °F 39.6 °F 41% 30.03 in 10.0 mi West 4.6 mph - N/A   Clear
3:55 PM 64.4 °F 41.2 °F 43% 30.03 in 10.0 mi WNW 5.8 mph - N/A   Clear
4:15 PM 64.8 °F 41.5 °F 43% 30.02 in 10.0 mi WNW 8.1 mph - N/A   Clear
4:35 PM 63.5 °F 39.4 °F 41% 30.01 in 10.0 mi SW 3.5 mph - N/A   Scattered Clouds
4:55 PM 64.4 °F 40.6 °F 42% 30.01 in 10.0 mi WSW 5.8 mph - N/A   Scattered Clouds
5:15 PM 65.3 °F 41.4 °F 42% 30.01 in 10.0 mi West 4.6 mph - N/A   Scattered Clouds
5:35 PM 66.2 °F 41.7 °F 41% 30.00 in 10.0 mi West 9.2 mph - N/A   Clear
5:55 PM 65.1 °F 40.1 °F 40% 30.00 in 10.0 mi South 3.5 mph - N/A   Mostly Cloudy
6:15 PM 63.5 °F 40.5 °F 43% 30.00 in 10.0 mi WNW 6.9 mph - N/A   Scattered Clouds
6:35 PM 63.3 °F 41.0 °F 44% 30.00 in 10.0 mi NW 6.9 mph - N/A   Scattered Clouds
6:55 PM 64.9 °F 40.1 °F 40% 30.00 in 10.0 mi WSW 8.1 mph - N/A   Mostly Cloudy
7:15 PM 64.4 °F 39.9 °F 41% 30.00 in 10.0 mi West 10.4 mph 16.1 mph N/A   Scattered Clouds
7:35 PM 63.9 °F 39.7 °F 41% 29.99 in 10.0 mi WNW 4.6 mph - N/A   Clear
7:55 PM 63.5 °F 40.5 °F 43% 30.00 in 10.0 mi WNW 4.6 mph - N/A   Clear
8:15 PM 62.6 °F 40.6 °F 45% 30.00 in 10.0 mi West 4.6 mph - N/A   Scattered Clouds
8:35 PM 60.8 °F 40.1 °F 46% 30.00 in 10.0 mi WNW 3.5 mph - N/A   Scattered Clouds
8:55 PM 60.4 °F 39.7 °F 46% 30.00 in 10.0 mi Calm Calm - N/A   Clear
9:15 PM 58.3 °F 41.7 °F 54% 30.01 in 10.0 mi West 3.5 mph - N/A   Clear
9:35 PM 53.6 °F 48.2 °F 82% 30.01 in 10.0 mi Calm Calm - N/A   Clear
9:55 PM 54.7 °F 44.6 °F 69% 30.02 in 10.0 mi Calm Calm - N/A   Clear
10:15 PM 52.7 °F 48.0 °F 84% 30.03 in 10.0 mi Calm Calm - N/A   Clear
10:35 PM 50.9 °F 49.1 °F 94% 30.03 in 10.0 mi Calm Calm - N/A   Clear
10:55 PM 50.5 °F 47.3 °F 89% 30.03 in 10.0 mi Calm Calm - N/A   Clear
11:15 PM 49.3 °F 48.6 °F 97% 30.04 in 10.0 mi Calm Calm - N/A   Clear
11:35 PM 48.2 °F 48.2 °F 100% 30.03 in 10.0 mi Calm Calm - N/A   Clear
11:55 PM 47.8 °F 47.3 °F 98% 30.03 in 10.0 mi Calm Calm - N/A   Clear